Погода Дан-Кун-Тотна 2 недели

Дансай, Таиланд

02 - 15 марта
  • 02марта
    Сегодня
    +23°
    +34°
    Ясно и безоблачно
    ВремяПогодаТемператураВлажностьДавлениеВетер, м/сВероятность осадков
    01:00Ясно и безоблачно+28°C68 %741 мм2.9 м/с3 %
    04:00Небольшая облачность+26°C70 %741 мм3.4 м/с7 %
    07:00Небольшая облачность+24°C62 %742 мм4.1 м/с7 %
    10:00Практически безоблачно+27°C51 %744 мм4.2 м/с6 %
    13:00Ясно и безоблачно+31°C44 %742 мм3.6 м/с4 %
    16:00Практически безоблачно+33°C42 %740 мм2.3 м/с10 %
    19:00Ясно и безоблачно+31°C50 %740 мм3.3 м/с6 %
    22:00Ясно и безоблачно+28°C55 %742 мм2.3 м/с2 %
  • 03марта
    Воскресенье
    +26°
    +35°
    Ясно и безоблачно
    ВремяПогодаТемператураВлажностьДавлениеВетер, м/сВероятность осадков
    01:00Ясно и безоблачно+27°C64 %742 мм1.6 м/с5 %
    04:00Ясно и безоблачно+25°C61 %741 мм2.2 м/с7 %
    07:00Практически безоблачно+23°C60 %743 мм2.8 м/с5 %
    10:00Ясно и безоблачно+29°C48 %744 мм2.4 м/с5 %
    13:00Ясно и безоблачно+33°C41 %741 мм2.2 м/с3 %
    16:00Ясно и безоблачно+35°C39 %738 мм1.0 м/с4 %
    19:00Ясно и безоблачно+32°C47 %739 мм1.9 м/с2 %
    22:00Ясно и безоблачно+30°C58 %740 мм1.0 м/с2 %
  • 04марта
    Понедельник
    +25°
    +37°
    Практически безоблачно
    ВремяПогодаТемператураВлажностьДавлениеВетер, м/сВероятность осадков
    01:00Ясно и безоблачно+27°C69 %740 мм1.7 м/с2 %
    04:00Ясно и безоблачно+27°C78 %739 мм2.8 м/с2 %
    07:00Ясно и безоблачно+26°C80 %741 мм2.7 м/с2 %
    10:00Ясно и безоблачно+32°C52 %742 мм3.6 м/с1 %
    13:00Практически безоблачно+35°C44 %740 мм3.4 м/с27 %
    16:00Практически безоблачно+37°C42 %738 мм3.2 м/с23 %
    19:00Практически безоблачно+34°C52 %738 мм2.9 м/с9 %
    22:00Ясно и безоблачно+30°C66 %739 мм2.4 м/с2 %
  • 05марта
    Вторник
    +21°
    +38°
    Ясно и безоблачно
    ВремяПогодаТемператураВлажностьДавлениеВетер, м/сВероятность осадков
    01:00Ясно и безоблачно+28°C75 %739 мм2.1 м/с2 %
    04:00Ясно и безоблачно+27°C75 %739 мм2.5 м/с2 %
    07:00Ясно и безоблачно+26°C79 %740 мм1.7 м/с2 %
    10:00Практически безоблачно+33°C50 %741 мм3.2 м/с2 %
    13:00Ясно и безоблачно+37°C29 %739 мм4.2 м/с2 %
    16:00Ясно и безоблачно+37°C24 %737 мм4.4 м/с2 %
    19:00Ясно и безоблачно+33°C39 %738 мм3.3 м/с2 %
    22:00Ясно и безоблачно+29°C43 %739 мм2.4 м/с2 %
  • 06марта
    Среда
    +23°
    +39°
    Ясно и безоблачно
    ВремяПогодаТемператураВлажностьДавлениеВетер, м/сВероятность осадков
    01:00Ясно и безоблачно+25°C55 %738 мм2.4 м/с2 %
    04:00Ясно и безоблачно+24°C78 %738 мм2.1 м/с2 %
    07:00Ясно и безоблачно+23°C90 %739 мм0.9 м/с2 %
    10:00Ясно и безоблачно+31°C55 %740 мм1.4 м/с2 %
    13:00Ясно и безоблачно+37°C30 %738 мм2.5 м/с2 %
    16:00Ясно и безоблачно+38°C24 %736 мм3.2 м/с2 %
    19:00Ясно и безоблачно+33°C36 %737 мм2.6 м/с2 %
    22:00Ясно и безоблачно+30°C49 %738 мм2.0 м/с2 %
Мы используем cookies
Соглашаюсь